Time;durP1;ratioP1;P1;durP2;ratioP2;P2;SDS_P1;SDS_P2;PMS_P1;PMS_P2;Temp;Humidity;BMP_temperature;BMP_pressure;BME280_temperature;BME280_humidity;BME280_pressure;Samples;Min_cycle;Max_cycle;Signal;HPM_P1;HPM_P2
2023/03/20 00:01:37;;;;;;;8.63;6.63;;;;;;;8.31;100.00;101987.34;5131095;27;20079;-36
2023/03/20 00:04:03;;;;;;;8.17;5.97;;;;;;;8.37;100.00;101997.38;5131446;27;20292;-36
2023/03/20 00:06:28;;;;;;;9.50;6.60;;;;;;;8.36;100.00;102000.25;5130547;27;20027;-35
2023/03/20 00:08:56;;;;;;;8.63;5.53;;;;;;;8.36;100.00;101992.16;5130736;27;20106;-35
2023/03/20 00:11:29;;;;;;;9.18;6.63;;;;;;;8.29;100.00;101977.75;5130983;27;20034;-36
2023/03/20 00:14:01;;;;;;;9.77;5.97;;;;;;;8.35;100.00;101991.31;5117042;27;20360;-35
2023/03/20 00:16:34;;;;;;;10.82;6.95;;;;;;;8.32;100.00;101994.38;5117487;28;20101;-36
2023/03/20 00:19:00;;;;;;;9.77;6.38;;;;;;;8.33;100.00;101987.97;5116831;28;20069;-36
2023/03/20 00:21:26;;;;;;;8.85;6.55;;;;;;;8.27;100.00;101988.72;5116497;28;20567;-35
2023/03/20 00:23:53;;;;;;;8.75;6.20;;;;;;;8.23;100.00;101982.03;5116902;28;20054;-35
2023/03/20 00:26:31;;;;;;;11.15;6.90;;;;;;;8.26;100.00;101987.91;5116756;28;20027;-35
2023/03/20 00:28:57;;;;;;;10.77;6.32;;;;;;;8.26;100.00;101978.97;5116995;28;20488;-35
2023/03/20 00:31:24;;;;;;;11.55;6.50;;;;;;;8.29;100.00;101981.28;5132497;27;20134;-35
2023/03/20 00:33:50;;;;;;;10.82;6.38;;;;;;;8.28;100.00;101971.53;5117056;27;20456;-35
2023/03/20 00:36:15;;;;;;;11.85;7.18;;;;;;;8.19;100.00;101968.09;5116103;28;20478;-35
2023/03/20 00:38:40;;;;;;;12.10;6.93;;;;;;;8.17;100.00;101962.06;5116749;28;20122;-35
2023/03/20 00:41:38;;;;;;;12.50;7.50;;;;;;;8.17;100.00;101954.00;5116612;28;20448;-36
2023/03/20 00:44:26;;;;;;;11.07;7.72;;;;;;;8.14;100.00;101961.59;5112055;28;20048;-37
2023/03/20 00:46:58;;;;;;;13.35;7.22;;;;;;;8.08;100.00;101944.34;5116699;28;20073;-37
2023/03/20 00:49:34;;;;;;;10.52;6.93;;;;;;;8.08;100.00;101946.19;5117169;28;20106;-37
2023/03/20 00:52:01;;;;;;;14.07;7.80;;;;;;;8.06;100.00;101945.56;5116853;28;20102;-37
2023/03/20 00:54:27;;;;;;;10.65;8.05;;;;;;;8.02;100.00;101944.25;5116481;28;20031;-37
2023/03/20 00:57:23;;;;;;;12.15;7.43;;;;;;;8.01;100.00;101956.91;5116504;28;20088;-36
2023/03/20 00:59:55;;;;;;;12.13;7.13;;;;;;;7.91;100.00;101970.66;5115147;28;20122;-36
2023/03/20 01:02:25;;;;;;;10.93;7.82;;;;;;;7.88;100.00;101979.09;5116374;28;20047;-36
2023/03/20 01:04:51;;;;;;;9.63;7.20;;;;;;;7.82;100.00;101977.13;5116911;28;20024;-35
2023/03/20 01:07:17;;;;;;;9.43;7.28;;;;;;;7.84;100.00;101991.25;5115935;28;20095;-35
2023/03/20 01:09:42;;;;;;;11.10;7.00;;;;;;;7.79;100.00;101995.53;5116454;28;20028;-36
2023/03/20 01:12:11;;;;;;;11.53;7.53;;;;;;;7.76;100.00;102010.19;5115765;28;20039;-35
2023/03/20 01:14:36;;;;;;;9.98;7.32;;;;;;;7.74;100.00;102006.84;5116427;28;20590;-35
2023/03/20 01:17:02;;;;;;;12.35;7.53;;;;;;;7.75;100.00;102003.13;5116291;28;20035;-35
2023/03/20 01:19:27;;;;;;;10.23;7.37;;;;;;;7.70;100.00;101984.81;5115956;28;20035;-35
2023/03/20 01:21:52;;;;;;;13.03;7.70;;;;;;;7.65;100.00;101981.00;5115457;28;20648;-36
2023/03/20 01:24:18;;;;;;;11.20;7.23;;;;;;;7.60;100.00;101988.81;5115462;28;20027;-35
2023/03/20 01:26:44;;;;;;;11.73;7.73;;;;;;;7.55;100.00;101980.44;5115523;28;20092;-36
2023/03/20 01:29:27;;;;;;;11.77;7.45;;;;;;;7.52;100.00;101975.44;5115457;28;20027;-36
2023/03/20 01:31:53;;;;;;;9.68;7.28;;;;;;;7.45;100.00;101980.72;5115485;28;20035;-35
2023/03/20 01:34:20;;;;;;;11.45;7.63;;;;;;;7.51;100.00;102000.66;5114916;28;20034;-35
2023/03/20 01:36:57;;;;;;;11.23;7.78;;;;;;;7.40;100.00;101991.19;5115338;28;20039;-36
2023/03/20 01:39:32;;;;;;;9.60;7.43;;;;;;;7.43;100.00;102007.81;5115314;28;20061;-35
2023/03/20 01:41:59;;;;;;;13.98;8.48;;;;;;;7.41;100.00;101992.84;5115713;28;20024;-35
2023/03/20 01:44:28;;;;;;;12.80;8.88;;;;;;;7.33;100.00;101992.94;5115444;28;20015;-35
2023/03/20 01:46:54;;;;;;;17.15;8.85;;;;;;;7.32;100.00;101991.25;5115668;28;20479;-35
2023/03/20 01:49:19;;;;;;;11.02;8.30;;;;;;;7.33;100.00;101985.72;5114791;28;20040;-35
2023/03/20 01:51:45;;;;;;;13.10;9.13;;;;;;;7.29;100.00;101980.88;5115064;28;20041;-36
2023/03/20 01:54:16;;;;;;;;;;;;;;;7.35;100.00;101975.59;5115446;28;20024;-36
2023/03/20 01:56:51;;;;;;;16.05;9.48;;;;;;;7.25;100.00;101988.44;5115826;28;19915;-35
2023/03/20 01:59:23;;;;;;;11.98;8.98;;;;;;;7.16;100.00;101984.16;5114874;28;20060;-35
2023/03/20 02:01:49;;;;;;;15.85;9.55;;;;;;;7.15;100.00;101986.00;5114744;28;20066;-35
2023/03/20 02:04:15;;;;;;;13.93;9.25;;;;;;;7.08;100.00;101981.56;5114544;28;20031;-36
2023/03/20 02:06:43;;;;;;;12.98;9.35;;;;;;;7.11;100.00;101973.09;5115003;28;20034;-35
2023/03/20 02:09:09;;;;;;;10.60;8.30;;;;;;;7.01;100.00;101961.75;5114668;28;20031;-36
2023/03/20 02:11:36;;;;;;;12.23;8.80;;;;;;;7.02;100.00;101968.81;5115000;28;20027;-36
2023/03/20 02:14:03;;;;;;;15.05;9.40;;;;;;;6.86;100.00;101964.38;5114556;28;20023;-36
2023/03/20 02:16:28;;;;;;;12.45;9.40;;;;;;;6.94;100.00;101984.00;5115151;28;20027;-36
2023/03/20 02:18:56;;;;;;;13.30;9.33;;;;;;;6.98;100.00;101989.88;5114464;28;20030;-36
2023/03/20 02:21:58;;;;;;;13.10;8.65;;;;;;;6.94;100.00;101984.00;5114445;28;20080;-36
2023/03/20 02:24:54;;;;;;;11.30;8.60;;;;;;;6.97;100.00;101999.75;5114405;28;20038;-36
2023/03/20 02:27:24;;;;;;;13.95;9.18;;;;;;;6.84;100.00;101996.00;5115520;28;20024;-36
2023/03/20 02:30:05;;;;;;;13.25;9.35;;;;;;;6.83;100.00;101995.19;5114420;28;20503;-37
2023/03/20 02:33:17;;;;;;;13.82;9.93;;;;;;;6.87;100.00;101998.31;5114667;28;20122;-36
2023/03/20 02:35:45;;;;;;;14.23;10.52;;;;;;;6.82;100.00;102001.53;5114920;28;20372;-37
2023/03/20 02:38:21;;;;;;;17.75;10.95;;;;;;;6.79;100.00;101995.72;5113876;28;20024;-36
2023/03/20 02:41:11;;;;;;;15.13;10.63;;;;;;;6.76;100.00;101986.13;5114502;28;20023;-36
2023/03/20 02:43:49;;;;;;;15.27;10.65;;;;;;;6.74;100.00;101987.34;5113884;28;20026;-36
2023/03/20 02:46:33;;;;;;;12.98;10.32;;;;;;;6.77;100.00;101982.41;5115034;28;20046;-36
2023/03/20 02:49:19;;;;;;;15.15;11.07;;;;;;;6.71;100.00;101975.06;5113815;28;20024;-36
2023/03/20 02:51:59;;;;;;;13.87;10.77;;;;;;;6.77;100.00;101976.22;5114671;28;20032;-36
2023/03/20 02:54:47;;;;;;;13.70;11.13;;;;;;;6.62;100.00;101970.75;5114397;28;20027;-36
2023/03/20 02:57:28;;;;;;;13.45;9.93;;;;;;;6.66;100.00;101964.84;5114077;28;20122;-36
2023/03/20 03:00:08;;;;;;;13.13;10.02;;;;;;;6.50;100.00;101940.78;5114582;28;20398;-36
2023/03/20 03:02:39;;;;;;;14.98;11.70;;;;;;;6.63;100.00;101964.38;5114859;28;20047;-35
2023/03/20 03:05:15;;;;;;;14.85;10.98;;;;;;;6.62;100.00;101962.69;5113763;28;20039;-35
2023/03/20 03:07:44;;;;;;;17.13;11.05;;;;;;;6.57;100.00;101957.03;5114456;28;20051;-35
2023/03/20 03:10:21;;;;;;;15.57;11.13;;;;;;;6.53;100.00;101956.53;5114206;28;20028;-35
2023/03/20 03:12:48;;;;;;;;;;;;;;;6.65;100.00;101951.59;5114124;28;20058;-36
2023/03/20 03:15:26;;;;;;;13.05;10.25;;;;;;;6.54;100.00;101933.19;5114216;28;19916;-36
2023/03/20 03:17:52;;;;;;;18.40;10.38;;;;;;;6.57;100.00;101939.03;5113536;28;20049;-36
2023/03/20 03:20:25;;;;;;;15.80;10.88;;;;;;;6.53;100.00;101929.66;5113466;28;20027;-36
2023/03/20 03:22:50;;;;;;;16.30;11.63;;;;;;;6.36;100.00;101912.81;5113517;28;20026;-36
2023/03/20 03:25:15;;;;;;;15.40;9.80;;;;;;;6.43;100.00;101921.81;5113495;28;20028;-36
2023/03/20 03:27:48;;;;;;;12.77;10.80;;;;;;;6.42;100.00;101925.53;5113502;28;20080;-35
2023/03/20 03:30:32;;;;;;;13.63;9.70;;;;;;;6.44;100.00;101928.91;5114073;28;20467;-35
2023/03/20 03:33:21;;;;;;;12.88;10.32;;;;;;;6.45;100.00;101927.88;5113991;28;20035;-35
2023/03/20 03:35:48;;;;;;;13.02;10.48;;;;;;;6.40;100.00;101932.94;5114488;28;20095;-35
2023/03/20 03:38:28;;;;;;;16.27;10.75;;;;;;;6.42;100.00;101925.53;5113311;28;20521;-35
2023/03/20 03:41:15;;;;;;;14.13;9.45;;;;;;;6.43;100.00;101927.19;5114392;28;20356;-35
2023/03/20 03:44:01;;;;;;;12.90;10.15;;;;;;;6.43;100.00;101923.69;5114600;28;20073;-35
2023/03/20 03:46:34;;;;;;;11.88;9.68;;;;;;;6.40;100.00;101924.06;5113586;28;20024;-35
2023/03/20 03:49:02;;;;;;;13.52;9.40;;;;;;;6.33;100.00;101905.09;5117140;28;20473;-36
2023/03/20 03:51:31;;;;;;;13.98;9.60;;;;;;;6.35;100.00;101913.00;5117389;28;20071;-36
2023/03/20 03:54:07;;;;;;;11.48;8.98;;;;;;;6.30;100.00;101910.00;5117561;28;20106;-36
2023/03/20 03:56:36;;;;;;;13.50;10.20;;;;;;;6.30;100.00;101915.38;5118135;28;20024;-36
2023/03/20 03:59:07;;;;;;;15.07;10.70;;;;;;;6.26;100.00;101919.44;5117401;28;20081;-36
2023/03/20 04:01:36;;;;;;;13.57;9.77;;;;;;;6.23;100.00;101909.84;5117676;28;20055;-36
2023/03/20 04:04:06;;;;;;;14.20;9.32;;;;;;;6.29;100.00;101921.75;5117144;28;20525;-36
2023/03/20 04:06:32;;;;;;;11.82;8.57;;;;;;;6.15;100.00;101891.97;5117971;28;20035;-36
2023/03/20 04:08:57;;;;;;;12.95;9.27;;;;;;;6.20;100.00;101920.97;5116851;28;20436;-36
2023/03/20 04:11:24;;;;;;;16.63;8.97;;;;;;;6.15;100.00;101896.50;5117384;28;20122;-36
2023/03/20 04:13:51;;;;;;;14.50;9.63;;;;;;;6.19;100.00;101921.97;5116855;28;20280;-36
2023/03/20 04:16:18;;;;;;;11.68;9.45;;;;;;;6.17;100.00;101913.25;5116910;28;20032;-36
2023/03/20 04:18:44;;;;;;;13.15;10.48;;;;;;;6.09;100.00;101895.31;5116520;28;20031;-36
2023/03/20 04:21:10;;;;;;;13.27;9.52;;;;;;;6.12;100.00;101910.25;5117078;28;20024;-36
2023/03/20 04:23:36;;;;;;;12.10;8.82;;;;;;;6.11;100.00;101913.97;5116745;28;20034;-36
2023/03/20 04:26:02;;;;;;;11.68;9.05;;;;;;;6.12;100.00;101912.94;5116702;28;20069;-36
2023/03/20 04:28:28;;;;;;;11.82;10.10;;;;;;;6.11;100.00;101905.91;5116357;28;20028;-36
2023/03/20 04:30:55;;;;;;;12.10;9.60;;;;;;;6.10;100.00;101904.22;5117192;28;20036;-36
2023/03/20 04:33:21;;;;;;;13.40;9.15;;;;;;;6.06;100.00;101902.91;5116829;28;20050;-35
2023/03/20 04:35:46;;;;;;;12.55;8.77;;;;;;;6.13;100.00;101909.25;5116852;28;20031;-36
2023/03/20 04:38:12;;;;;;;12.67;9.53;;;;;;;6.11;100.00;101906.75;5116234;28;20027;-36
2023/03/20 04:40:38;;;;;;;12.50;9.25;;;;;;;6.08;100.00;101911.63;5116139;28;20027;-36
2023/03/20 04:43:04;;;;;;;12.33;9.33;;;;;;;6.03;100.00;101898.72;5116148;28;20024;-36
2023/03/20 04:45:29;;;;;;;12.90;8.77;;;;;;;6.04;100.00;101891.50;5116619;28;20287;-36
2023/03/20 04:47:55;;;;;;;11.63;9.43;;;;;;;5.99;100.00;101891.19;5116285;28;20073;-36
2023/03/20 04:50:20;;;;;;;12.17;9.27;;;;;;;6.01;100.00;101878.44;5116608;28;20057;-36
2023/03/20 04:52:45;;;;;;;12.33;9.47;;;;;;;5.99;100.00;101883.97;5116292;28;20032;-36
2023/03/20 04:55:10;;;;;;;12.40;9.60;;;;;;;5.99;100.00;101869.72;5116020;28;20023;-35
2023/03/20 04:57:36;;;;;;;12.30;9.30;;;;;;;5.98;100.00;101871.56;5116381;28;20513;-35
2023/03/20 05:00:03;;;;;;;14.68;9.77;;;;;;;6.03;100.00;101897.88;5116888;28;20524;-36
2023/03/20 05:02:29;;;;;;;13.88;9.75;;;;;;;6.02;100.00;101897.06;5116312;28;20103;-36
2023/03/20 05:04:54;;;;;;;13.68;9.90;;;;;;;5.88;100.00;101897.75;5116024;28;20467;-36
2023/03/20 05:07:20;;;;;;;12.02;8.77;;;;;;;5.94;100.00;101899.75;5116206;28;20047;-36
2023/03/20 05:09:46;;;;;;;13.80;9.82;;;;;;;6.03;100.00;101896.03;5115909;28;20027;-35
2023/03/20 05:12:12;;;;;;;12.18;9.77;;;;;;;5.90;100.00;101884.97;5116091;28;20027;-36
2023/03/20 05:14:37;;;;;;;14.20;9.60;;;;;;;5.93;100.00;101888.19;5116125;28;20019;-36
2023/03/20 05:17:02;;;;;;;11.90;9.87;;;;;;;5.92;100.00;101877.63;5116028;28;20463;-36
2023/03/20 05:19:28;;;;;;;15.90;10.50;;;;;;;5.90;100.00;101880.47;5116038;28;20020;-37
2023/03/20 05:21:53;;;;;;;17.07;10.00;;;;;;;5.89;100.00;101873.41;5115270;28;20573;-35
2023/03/20 05:24:19;;;;;;;13.33;9.00;;;;;;;5.93;100.00;101879.31;5115891;28;20034;-36
2023/03/20 05:26:45;;;;;;;;;;;;;;;6.03;100.00;101881.78;5116033;28;20067;-36
2023/03/20 05:29:10;;;;;;;12.32;8.93;;;;;;;5.99;100.00;101883.13;5116048;28;19939;-36
2023/03/20 05:31:36;;;;;;;13.65;8.60;;;;;;;5.92;100.00;101883.00;5116628;28;20333;-35
2023/03/20 05:34:01;;;;;;;14.63;9.00;;;;;;;5.94;100.00;101879.13;5115148;28;20024;-36
2023/03/20 05:36:27;;;;;;;11.15;9.27;;;;;;;5.97;100.00;101874.44;5115141;28;20579;-35
2023/03/20 05:38:52;;;;;;;13.93;9.30;;;;;;;5.84;100.00;101859.66;5114831;28;20497;-37
2023/03/20 05:41:17;;;;;;;13.30;9.47;;;;;;;5.91;100.00;101873.25;5097059;28;20058;-36
2023/03/20 05:43:43;;;;;;;12.83;8.90;;;;;;;5.93;100.00;101882.00;5115713;28;20033;-36
2023/03/20 05:46:08;;;;;;;11.47;8.33;;;;;;;5.94;100.00;101879.13;5115672;28;20062;-36
2023/03/20 05:48:33;;;;;;;11.60;8.63;;;;;;;5.95;100.00;101885.31;5115060;28;20114;-36
2023/03/20 05:50:59;;;;;;;14.93;8.90;;;;;;;5.94;100.00;101883.66;5114990;28;20032;-36
2023/03/20 05:53:24;;;;;;;16.20;9.37;;;;;;;5.89;100.00;101881.47;5114691;28;20030;-35
2023/03/20 05:55:49;;;;;;;12.17;8.23;;;;;;;6.00;100.00;101903.59;5114853;28;20023;-35
2023/03/20 05:58:15;;;;;;;11.57;7.87;;;;;;;5.99;100.00;101901.94;5114680;28;20517;-38
2023/03/20 06:00:40;;;;;;;12.60;8.83;;;;;;;5.97;100.00;101891.38;5114795;28;20023;-35
2023/03/20 06:03:05;;;;;;;11.27;7.77;;;;;;;6.10;100.00;101909.59;5115479;28;20048;-36
2023/03/20 06:05:32;;;;;;;11.67;7.40;;;;;;;6.13;100.00;101909.25;5114901;28;20030;-36
2023/03/20 06:07:58;;;;;;;9.20;7.18;;;;;;;6.10;100.00;101914.94;5114304;28;20027;-36
2023/03/20 06:10:23;;;;;;;14.25;8.00;;;;;;;6.16;100.00;101919.66;5114185;28;20540;-36
2023/03/20 06:12:49;;;;;;;13.50;8.53;;;;;;;6.13;100.00;101915.44;5115279;28;20106;-36
2023/03/20 06:15:15;;;;;;;11.32;8.40;;;;;;;6.12;100.00;101918.31;5114972;28;20022;-36
2023/03/20 06:17:40;;;;;;;13.77;8.30;;;;;;;6.13;100.00;101920.81;5114559;28;20023;-36
2023/03/20 06:20:07;;;;;;;10.97;8.30;;;;;;;6.12;100.00;101919.16;5115081;28;20061;-36
2023/03/20 06:22:32;;;;;;;15.75;8.85;;;;;;;6.11;100.00;101917.47;5114370;28;20463;-36
2023/03/20 06:24:57;;;;;;;12.97;8.00;;;;;;;6.17;100.00;101921.31;5114318;28;20063;-37
2023/03/20 06:27:23;;;;;;;16.63;8.17;;;;;;;6.16;100.00;101935.75;5113949;28;20490;-37
2023/03/20 06:29:48;;;;;;;12.13;7.22;;;;;;;6.19;100.00;101930.03;5114456;28;20027;-37
2023/03/20 06:32:16;;;;;;;10.90;7.43;;;;;;;6.09;100.00;101913.28;5114236;28;20084;-35
2023/03/20 06:34:41;;;;;;;11.65;6.88;;;;;;;6.21;100.00;101927.19;5114863;28;20451;-35
2023/03/20 06:37:06;;;;;;;11.80;7.63;;;;;;;6.29;100.00;101938.69;5114762;28;20069;-35
2023/03/20 06:39:32;;;;;;;12.23;6.90;;;;;;;6.31;100.00;101928.63;5115131;28;20130;-36
2023/03/20 06:41:57;;;;;;;11.97;7.23;;;;;;;6.35;100.00;101943.38;5114387;28;20069;-36
2023/03/20 06:44:23;;;;;;;11.33;7.13;;;;;;;6.39;100.00;101941.16;5113921;28;20077;-36
2023/03/20 06:46:48;;;;;;;13.80;7.75;;;;;;;6.32;100.00;101937.53;5114102;28;20023;-36
2023/03/20 06:49:13;;;;;;;11.60;7.57;;;;;;;6.45;100.00;101941.31;5095985;28;20031;-36
2023/03/20 06:51:39;;;;;;;14.23;7.60;;;;;;;6.47;100.00;101948.34;5113914;28;20038;-36
2023/03/20 06:54:04;;;;;;;14.10;6.70;;;;;;;6.48;100.00;101947.31;5114387;28;20034;-36
2023/03/20 06:56:31;;;;;;;10.00;6.70;;;;;;;6.54;100.00;101949.31;5114183;28;20519;-36
2023/03/20 06:58:56;;;;;;;11.40;7.15;;;;;;;6.54;100.00;101952.00;5114016;28;20031;-36
2023/03/20 07:01:22;;;;;;;12.27;7.07;;;;;;;6.59;100.00;101958.53;5113703;28;20491;-36
2023/03/20 07:03:48;;;;;;;11.80;7.18;;;;;;;6.53;100.00;101948.47;5114013;28;20031;-35
2023/03/20 07:06:14;;;;;;;11.80;6.78;;;;;;;6.64;100.00;101958.00;5113956;28;20027;-36
2023/03/20 07:08:39;;;;;;;12.88;6.90;;;;;;;6.65;100.00;101963.19;5113883;28;20055;-36
2023/03/20 07:11:05;;;;;;;11.73;7.07;;;;;;;6.64;100.00;101966.06;5114558;28;20035;-36
2023/03/20 07:13:32;;;;;;;10.85;6.40;;;;;;;6.63;100.00;101970.56;5113547;28;20041;-36
2023/03/20 07:16:00;;;;;;;11.98;6.68;;;;;;;6.57;100.00;101962.41;5113830;28;20118;-36
2023/03/20 07:18:25;;;;;;;10.82;6.55;;;;;;;6.66;100.00;101975.59;5114048;28;20028;-36
2023/03/20 07:20:51;;;;;;;10.70;6.70;;;;;;;6.65;100.00;101973.94;5114583;28;20478;-35
2023/03/20 07:23:17;;;;;;;11.73;6.85;;;;;;;6.69;100.00;101969.06;5115638;28;20277;-36
2023/03/20 07:25:44;;;;;;;9.93;5.85;;;;;;;6.71;100.00;101967.84;5117914;28;20042;-36
2023/03/20 07:28:10;;;;;;;10.70;6.22;;;;;;;6.69;100.00;101971.75;5118631;28;20065;-36
2023/03/20 07:30:35;;;;;;;11.75;6.90;;;;;;;6.75;100.00;101965.66;5118537;28;20019;-36
2023/03/20 07:33:01;;;;;;;14.00;6.53;;;;;;;6.80;100.00;101978.56;5118466;28;20110;-36
2023/03/20 07:35:26;;;;;;;12.63;6.87;;;;;;;6.80;100.00;101973.19;5117347;28;20031;-37
2023/03/20 07:37:51;;;;;;;11.10;6.30;;;;;;;6.84;100.00;101987.94;5118096;28;20281;-37
2023/03/20 07:40:17;;;;;;;11.40;5.90;;;;;;;6.82;100.00;101974.66;5117433;28;20028;-37
2023/03/20 07:42:43;;;;;;;11.40;6.50;;;;;;;6.92;100.00;101977.09;5117376;28;20074;-37
2023/03/20 07:45:09;;;;;;;14.13;7.43;;;;;;;6.98;100.00;101979.09;5117672;28;20110;-34
2023/03/20 07:47:35;;;;;;;11.93;6.72;;;;;;;6.85;100.00;101958.19;5117396;28;20102;-35
2023/03/20 07:50:00;;;;;;;11.02;6.20;;;;;;;7.05;100.00;101980.03;5117468;28;20539;-35
2023/03/20 07:52:26;;;;;;;14.73;6.43;;;;;;;6.99;100.00;101972.69;5117419;28;20036;-36
2023/03/20 07:54:51;;;;;;;11.30;5.77;;;;;;;7.08;100.00;101978.88;5117051;28;20106;-35
2023/03/20 07:57:17;;;;;;;12.40;6.30;;;;;;;7.05;100.00;101977.34;5117591;28;20112;-35
2023/03/20 07:59:42;;;;;;;12.88;5.95;;;;;;;7.01;100.00;101967.13;5117289;28;20115;-36
2023/03/20 08:02:13;;;;;;;13.00;6.40;;;;;;;7.07;100.00;101972.63;5116915;28;20051;-36
2023/03/20 08:04:39;;;;;;;11.35;5.32;;;;;;;7.00;100.00;101963.63;5117872;28;20430;-35
2023/03/20 08:07:05;;;;;;;11.63;6.32;;;;;;;7.08;100.00;101978.88;5116811;28;20084;-35
2023/03/20 08:09:30;;;;;;;14.00;6.25;;;;;;;7.09;100.00;101977.84;5117410;28;20027;-36
2023/03/20 08:11:56;;;;;;;11.27;6.27;;;;;;;7.04;100.00;101974.84;5117059;28;20031;-36
2023/03/20 08:14:21;;;;;;;10.83;6.03;;;;;;;6.98;100.00;101976.41;5117105;28;20039;-36
2023/03/20 08:16:47;;;;;;;11.60;6.00;;;;;;;6.93;100.00;101960.81;5117199;28;20028;-36
2023/03/20 08:19:12;;;;;;;10.23;6.03;;;;;;;7.00;100.00;101976.22;5116694;28;20027;-36
2023/03/20 08:21:37;;;;;;;8.73;5.23;;;;;;;7.02;100.00;101966.94;5117666;28;20274;-36
2023/03/20 08:24:03;;;;;;;10.57;5.80;;;;;;;7.06;100.00;101970.13;5116925;28;20024;-36
2023/03/20 08:26:28;;;;;;;12.02;5.50;;;;;;;7.04;100.00;101974.84;5117046;28;20285;-36
2023/03/20 08:28:54;;;;;;;8.67;5.20;;;;;;;7.11;100.00;101975.78;5117339;28;20020;-36
2023/03/20 08:31:19;;;;;;;14.07;5.97;;;;;;;7.12;100.00;101964.00;5116685;28;20354;-36
2023/03/20 08:33:45;;;;;;;11.37;5.93;;;;;;;7.09;100.00;101959.00;5116499;28;20030;-36
2023/03/20 08:36:12;;;;;;;9.98;5.82;;;;;;;7.19;100.00;101968.50;5117215;28;20031;-36
2023/03/20 08:38:37;;;;;;;9.02;5.15;;;;;;;7.21;100.00;101973.69;5116533;28;20059;-36
2023/03/20 08:41:04;;;;;;;8.70;4.90;;;;;;;7.20;100.00;101974.72;5116427;28;20067;-36
2023/03/20 08:43:30;;;;;;;10.13;5.57;;;;;;;7.25;100.00;101969.63;5116780;28;20038;-36
2023/03/20 08:45:55;;;;;;;10.33;5.33;;;;;;;7.20;100.00;101969.31;5116535;28;20028;-36
2023/03/20 08:48:20;;;;;;;10.83;5.77;;;;;;;7.25;100.00;101963.41;5116369;28;20024;-36
2023/03/20 08:50:46;;;;;;;16.43;5.83;;;;;;;7.34;100.00;101976.59;5116917;28;20419;-36
2023/03/20 08:53:11;;;;;;;13.20;5.90;;;;;;;7.38;100.00;101969.00;5116050;28;20391;-35
2023/03/20 08:55:37;;;;;;;12.77;5.00;;;;;;;7.37;100.00;101957.41;5116615;28;20111;-35
2023/03/20 08:58:02;;;;;;;10.07;5.43;;;;;;;7.46;100.00;101972.44;5116252;28;20032;-36
2023/03/20 09:00:28;;;;;;;12.50;5.47;;;;;;;7.44;100.00;101965.59;5116399;28;20344;-36
2023/03/20 09:02:53;;;;;;;11.60;5.40;;;;;;;7.50;100.00;101956.78;5116148;28;20047;-35
2023/03/20 09:05:19;;;;;;;11.07;5.87;;;;;;;7.52;100.00;101957.44;5116953;28;20031;-35
2023/03/20 09:07:44;;;;;;;12.18;4.90;;;;;;;7.53;100.00;101950.19;5115692;28;20031;-36
2023/03/20 09:10:11;;;;;;;10.60;6.30;;;;;;;7.60;100.00;101969.97;5116015;28;20028;-36
2023/03/20 09:12:36;;;;;;;;;;;;;;;7.66;100.00;101971.91;5116365;28;20054;-36
2023/03/20 09:15:04;;;;;;;10.40;4.93;;;;;;;7.55;100.00;101964.28;5116736;28;19912;-36
2023/03/20 09:17:30;;;;;;;11.75;4.93;;;;;;;7.61;100.00;101979.72;5115651;28;20032;-35
2023/03/20 09:19:56;;;;;;;12.23;5.32;;;;;;;7.59;100.00;101981.75;5115683;28;20019;-35
2023/03/20 09:22:21;;;;;;;12.93;5.35;;;;;;;7.57;100.00;101986.50;5115340;28;20076;-36
2023/03/20 09:24:46;;;;;;;7.97;4.77;;;;;;;7.56;100.00;101985.63;5115980;28;20034;-36
2023/03/20 09:27:12;;;;;;;14.33;5.07;;;;;;;7.52;100.00;101965.50;5115634;28;20027;-36
2023/03/20 09:29:41;;;;;;;11.98;5.28;;;;;;;7.55;100.00;101977.75;5116136;28;20028;-36
2023/03/20 09:32:11;;;;;;;10.70;5.10;;;;;;;7.54;100.00;101978.78;5115452;28;20055;-36
2023/03/20 09:34:36;;;;;;;11.38;5.53;;;;;;;7.48;100.00;101973.09;5115514;28;20027;-36
2023/03/20 09:37:02;;;;;;;10.63;5.68;;;;;;;7.39;100.00;101987.66;5115716;28;20193;-36
2023/03/20 09:39:28;;;;;;;;;;;;;;;7.52;100.00;101991.59;5115533;28;20388;-36
2023/03/20 09:41:57;;;;;;;11.07;5.10;;;;;;;7.38;100.00;101975.22;5115207;28;19911;-36
2023/03/20 09:44:50;;;;;;;17.08;6.35;;;;;;;7.45;100.00;101986.09;5115713;28;20035;-36
2023/03/20 09:47:37;;;;;;;12.88;5.85;;;;;;;7.52;100.00;101994.28;5115046;28;20031;-36
2023/03/20 09:50:05;;;;;;;11.85;5.15;;;;;;;7.51;100.00;101979.13;5115147;28;20149;-36
2023/03/20 09:52:42;;;;;;;14.18;5.85;;;;;;;7.49;100.00;101976.63;5115137;28;20475;-37
2023/03/20 09:55:19;;;;;;;14.15;5.30;;;;;;;7.47;100.00;101973.31;5114801;28;20391;-37
2023/03/20 09:57:50;;;;;;;11.65;5.40;;;;;;;7.57;100.00;101973.03;5115283;28;20120;-34
2023/03/20 10:00:27;;;;;;;8.55;4.78;;;;;;;7.59;100.00;101981.75;5115196;28;20023;-34
2023/03/20 10:03:05;;;;;;;11.07;5.28;;;;;;;7.59;100.00;101979.06;5110292;28;20052;-35
2023/03/20 10:05:37;;;;;;;8.00;4.60;;;;;;;7.61;100.00;101982.41;5094202;28;20541;-36
2023/03/20 10:08:05;;;;;;;10.23;4.88;;;;;;;7.53;100.00;101977.13;5094723;28;20126;-36
2023/03/20 10:10:37;;;;;;;10.60;5.20;;;;;;;7.62;100.00;101981.41;5094684;28;20111;-35
2023/03/20 10:13:23;;;;;;;9.63;4.82;;;;;;;7.60;100.00;101980.72;5076263;28;20194;-35
2023/03/20 10:16:06;;;;;;;8.73;4.72;;;;;;;7.66;100.00;101971.91;5094322;28;20555;-36
2023/03/20 10:18:36;;;;;;;9.55;4.85;;;;;;;7.76;100.00;101969.81;5094338;28;20035;-35
2023/03/20 10:21:19;;;;;;;11.07;4.70;;;;;;;7.83;100.00;101972.59;5094181;28;20111;-35
2023/03/20 10:24:00;;;;;;;10.40;5.15;;;;;;;7.82;100.00;101966.38;5094382;28;20047;-35
2023/03/20 10:26:27;;;;;;;8.75;4.70;;;;;;;7.83;100.00;101962.66;5095245;28;20021;-35
2023/03/20 10:29:00;;;;;;;11.50;5.28;;;;;;;7.83;100.00;101959.13;5093966;28;20490;-35
2023/03/20 10:31:41;;;;;;;9.23;4.40;;;;;;;7.88;100.00;101971.00;5094233;28;20059;-36
2023/03/20 10:34:23;;;;;;;14.40;5.88;;;;;;;7.79;100.00;101961.34;5094338;28;20099;-35
2023/03/20 10:37:26;;;;;;;10.80;4.13;;;;;;;7.77;100.00;101967.94;5094334;28;20107;-36
2023/03/20 10:40:22;;;;;;;8.93;4.38;;;;;;;7.74;100.00;101961.91;5093920;28;20028;-36
2023/03/20 10:42:50;;;;;;;10.15;3.97;;;;;;;7.72;100.00;101957.72;5094705;28;20368;-35
2023/03/20 10:45:29;;;;;;;10.35;4.05;;;;;;;7.63;100.00;101962.38;5093864;28;20028;-35
2023/03/20 10:47:56;;;;;;;12.55;4.82;;;;;;;7.65;100.00;101956.78;5093864;28;20020;-36
2023/03/20 10:50:34;;;;;;;8.70;3.75;;;;;;;7.75;100.00;101954.66;5093465;28;20028;-36
2023/03/20 10:53:01;;;;;;;8.05;3.95;;;;;;;7.84;100.00;101958.94;5093517;28;20024;-36
2023/03/20 10:55:32;;;;;;;8.95;4.03;;;;;;;7.85;100.00;101954.38;5093674;28;20056;-35
2023/03/20 10:58:10;;;;;;;8.23;3.90;;;;;;;7.82;100.00;101950.22;5093247;28;20529;-36
2023/03/20 11:00:36;;;;;;;7.90;4.00;;;;;;;7.86;100.00;101951.53;5093620;28;20048;-36
2023/03/20 11:03:04;;;;;;;5.93;3.60;;;;;;;7.95;100.00;101961.19;5105050;28;20072;-36
2023/03/20 11:05:32;;;;;;;11.55;4.45;;;;;;;7.97;100.00;101953.72;5134442;28;20034;-36
2023/03/20 11:08:07;;;;;;;10.30;4.07;;;;;;;7.93;100.00;101952.44;5134806;28;20030;-36
2023/03/20 11:10:35;;;;;;;9.27;4.28;;;;;;;7.97;100.00;101940.25;5134402;28;20027;-36
2023/03/20 11:13:25;;;;;;;11.18;4.35;;;;;;;8.13;100.00;101946.47;5134462;28;20119;-35
2023/03/20 11:15:52;;;;;;;11.15;4.60;;;;;;;8.18;100.00;101936.78;5134970;28;20072;-35
2023/03/20 11:18:18;;;;;;;10.70;4.97;;;;;;;8.25;100.00;101935.03;5134372;28;20031;-35
2023/03/20 11:20:45;;;;;;;9.93;4.68;;;;;;;8.30;100.00;101930.94;5134238;28;20478;-35
2023/03/20 11:23:16;;;;;;;10.45;4.38;;;;;;;8.27;100.00;101932.97;5134830;28;20547;-36
2023/03/20 11:26:00;;;;;;;8.85;4.50;;;;;;;8.37;100.00;101921.91;5135201;28;20371;-35
2023/03/20 11:28:38;;;;;;;10.60;4.25;;;;;;;8.36;100.00;101903.22;5134267;28;20027;-35
2023/03/20 11:31:32;;;;;;;8.68;4.68;;;;;;;8.52;100.00;101919.19;5134293;28;20034;-36